createdAt,value
2022-11-10T00:02:05.781Z,102008.28
2022-11-10T00:04:33.449Z,102017.67
2022-11-10T00:07:01.138Z,102014.01
2022-11-10T00:09:28.822Z,102014.34
2022-11-10T00:11:56.462Z,102018.78
2022-11-10T00:14:42.609Z,102015.94
2022-11-10T00:17:13.151Z,102017.51
2022-11-10T00:19:40.821Z,102029.45
2022-11-10T00:22:08.482Z,102032.32
2022-11-10T00:24:36.212Z,102029.93
2022-11-10T00:27:04.347Z,102033.59
2022-11-10T00:29:31.996Z,102038.86
2022-11-10T00:31:59.661Z,102043.34
2022-11-10T00:34:27.370Z,102043.34
2022-11-10T00:36:55.071Z,102038.04
2022-11-10T00:39:22.703Z,102045.89
2022-11-10T00:41:50.390Z,102046.67
2022-11-10T00:44:18.050Z,102047.16
2022-11-10T00:46:45.703Z,102061.16
2022-11-10T00:49:13.522Z,102063.35
2022-11-10T00:51:41.206Z,102067.05
2022-11-10T00:54:08.858Z,102070.68
2022-11-10T00:56:36.454Z,102073.09
2022-11-10T00:59:04.151Z,102074.24
2022-11-10T01:01:31.830Z,102079.80
2022-11-10T01:03:59.540Z,102079.34
2022-11-10T01:06:27.229Z,102085.55
2022-11-10T01:08:54.867Z,102089.22
2022-11-10T01:11:29.371Z,102086.38
2022-11-10T01:13:58.066Z,102089.22
2022-11-10T01:16:28.893Z,102092.55
2022-11-10T01:18:59.337Z,102090.49
2022-11-10T01:21:28.646Z,102090.49
2022-11-10T01:23:57.181Z,102097.82
2022-11-10T01:26:25.410Z,102099.09
2022-11-10T01:28:53.061Z,102099.42
2022-11-10T01:31:22.936Z,102106.77
2022-11-10T01:33:51.073Z,102115.38
2022-11-10T01:36:18.741Z,102110.11
2022-11-10T01:38:46.417Z,102110.90
2022-11-10T01:41:16.008Z,102104.39
2022-11-10T01:43:43.671Z,102114.23
2022-11-10T01:46:13.371Z,102116.78
2022-11-10T01:48:58.157Z,102116.00
2022-11-10T01:51:42.856Z,102116.91
2022-11-10T01:54:17.149Z,102117.05
2022-11-10T01:56:51.580Z,102112.73
2022-11-10T01:59:23.816Z,102112.04
2022-11-10T02:01:55.460Z,102118.26
2022-11-10T02:04:23.703Z,102122.05
2022-11-10T02:06:51.875Z,102122.18
2022-11-10T02:09:19.825Z,102130.78
2022-11-10T02:11:48.710Z,102135.72
2022-11-10T02:14:17.388Z,102134.12
2022-11-10T02:16:45.070Z,102137.94
2022-11-10T02:19:40.383Z,102144.12
2022-11-10T02:22:08.028Z,102152.52
2022-11-10T02:24:36.107Z,102146.31
2022-11-10T02:27:03.974Z,102147.55
2022-11-10T02:29:31.627Z,102140.59
2022-11-10T02:31:59.251Z,102163.84
2022-11-10T02:34:26.908Z,102160.66
2022-11-10T02:36:54.505Z,102159.85
2022-11-10T02:39:22.160Z,102163.05
2022-11-10T02:41:49.792Z,102164.95
2022-11-10T02:44:17.507Z,102162.11
2022-11-10T02:46:45.220Z,102164.16
2022-11-10T02:49:12.815Z,102171.85
2022-11-10T02:51:40.553Z,102174.37
2022-11-10T02:54:08.175Z,102181.50
2022-11-10T02:56:36.547Z,102173.35
2022-11-10T02:59:04.505Z,102181.17
2022-11-10T03:01:32.149Z,102179.24
2022-11-10T03:03:59.826Z,102185.88
2022-11-10T03:06:27.494Z,102192.55
2022-11-10T03:08:55.099Z,102196.34
2022-11-10T03:11:23.567Z,102201.70
2022-11-10T03:14:01.505Z,102197.75
2022-11-10T03:16:30.211Z,102202.33
2022-11-10T03:18:57.828Z,102220.77
2022-11-10T03:21:25.446Z,102222.18
2022-11-10T03:23:53.088Z,102221.36
2022-11-10T03:26:20.709Z,102230.74
2022-11-10T03:28:48.400Z,102234.57
2022-11-10T03:31:16.004Z,102237.05
2022-11-10T03:33:43.575Z,102238.79
2022-11-10T03:36:11.186Z,102248.76
2022-11-10T03:38:38.859Z,102257.46
2022-11-10T03:41:22.049Z,102253.93
2022-11-10T03:43:50.593Z,102260.11
2022-11-10T03:46:19.206Z,102254.71
2022-11-10T03:48:52.843Z,102267.43
2022-11-10T03:51:22.208Z,102273.19
2022-11-10T03:53:50.089Z,102283.81
2022-11-10T03:56:17.835Z,102284.73
2022-11-10T03:58:45.441Z,102285.55
2022-11-10T04:01:13.268Z,102289.54
2022-11-10T04:03:40.875Z,102291.63
2022-11-10T04:06:30.092Z,102291.17
2022-11-10T04:09:00.896Z,102294.48
2022-11-10T04:11:49.267Z,102305.13
2022-11-10T04:14:36.154Z,102300.00
2022-11-10T04:17:04.649Z,102306.51
2022-11-10T04:19:32.300Z,102313.15
2022-11-10T04:22:00.055Z,102307.88
2022-11-10T04:24:28.116Z,102313.73
2022-11-10T04:26:55.770Z,102318.64
2022-11-10T04:29:23.394Z,102306.48
2022-11-10T04:31:51.039Z,102321.59
2022-11-10T04:34:18.696Z,102302.91
2022-11-10T04:36:47.074Z,102315.63
2022-11-10T04:39:14.750Z,102314.00
2022-11-10T04:41:42.472Z,102321.81
2022-11-10T04:44:10.088Z,102324.43
2022-11-10T04:46:40.821Z,102326.82
2022-11-10T04:49:08.934Z,102322.80
2022-11-10T04:51:40.106Z,102326.59
2022-11-10T04:54:08.706Z,102329.11
2022-11-10T04:56:36.305Z,102327.96
2022-11-10T04:59:04.034Z,102332.51
2022-11-10T05:01:31.667Z,102339.15
2022-11-10T05:03:59.627Z,102336.40
2022-11-10T05:06:27.374Z,102345.55
2022-11-10T05:08:54.983Z,102346.08
2022-11-10T05:11:22.635Z,102344.24
2022-11-10T05:13:50.263Z,102345.59
2022-11-10T05:16:18.091Z,102352.59
2022-11-10T05:18:45.726Z,102355.52
2022-11-10T05:21:13.344Z,102364.20
2022-11-10T05:23:41.421Z,102372.89
2022-11-10T05:26:15.377Z,102372.66
2022-11-10T05:28:45.090Z,102377.63
2022-11-10T05:31:13.282Z,102391.23
2022-11-10T05:33:41.172Z,102401.60
2022-11-10T05:36:09.588Z,102415.20
2022-11-10T05:38:42.880Z,102417.33
2022-11-10T05:41:10.882Z,102422.34
2022-11-10T05:43:38.680Z,102422.89
2022-11-10T05:46:06.449Z,102427.08
2022-11-10T05:48:34.105Z,102437.34
2022-11-10T05:51:01.822Z,102438.95
2022-11-10T05:53:29.509Z,102442.25
2022-11-10T05:55:57.156Z,102438.95
2022-11-10T05:58:24.790Z,102438.95
2022-11-10T06:00:52.486Z,102438.95
2022-11-10T06:03:21.326Z,102447.91
2022-11-10T06:05:49.381Z,102440.91
2022-11-10T06:08:18.816Z,102432.80
2022-11-10T06:10:46.454Z,102448.79
2022-11-10T06:13:14.136Z,102447.91
2022-11-10T06:15:46.114Z,102450.75
2022-11-10T06:18:16.881Z,102460.92
2022-11-10T06:20:44.496Z,102471.13
2022-11-10T06:23:13.378Z,102478.02
2022-11-10T06:25:42.386Z,102486.16
2022-11-10T06:28:10.738Z,102493.13
2022-11-10T06:30:39.215Z,102510.72
2022-11-10T06:33:06.860Z,102518.11
2022-11-10T06:35:34.556Z,102518.11
2022-11-10T06:38:13.711Z,102510.79
2022-11-10T06:40:41.379Z,102523.84
2022-11-10T06:43:09.008Z,102519.23
2022-11-10T06:45:36.648Z,102517.06
2022-11-10T06:48:12.263Z,102528.41
2022-11-10T06:50:39.954Z,102524.49
2022-11-10T06:53:07.712Z,102519.13
2022-11-10T06:55:35.379Z,102519.13
2022-11-10T06:58:03.293Z,102534.23
2022-11-10T07:00:31.210Z,102530.51
2022-11-10T07:03:08.788Z,102538.98
2022-11-10T07:05:37.711Z,102542.44
2022-11-10T07:08:05.318Z,102548.98
2022-11-10T07:10:33.664Z,102551.47
2022-11-10T07:13:03.578Z,102553.36
2022-11-10T07:15:31.711Z,102557.29
2022-11-10T07:17:59.491Z,102565.73
2022-11-10T07:20:27.517Z,102561.90
2022-11-10T07:23:02.538Z,102574.42
2022-11-10T07:25:32.401Z,102571.02
2022-11-10T07:28:02.202Z,102568.86
2022-11-10T07:30:31.451Z,102565.20
2022-11-10T07:33:04.370Z,102570.76
2022-11-10T07:35:33.470Z,102582.92
2022-11-10T07:38:09.976Z,102589.37
2022-11-10T07:40:38.709Z,102593.03
2022-11-10T07:43:06.549Z,102597.41
2022-11-10T07:45:34.727Z,102608.79
2022-11-10T07:48:07.798Z,102621.38
2022-11-10T07:50:35.571Z,102634.36
2022-11-10T07:53:08.016Z,102632.95
2022-11-10T07:55:37.592Z,102643.42
2022-11-10T07:58:05.756Z,102639.56
2022-11-10T08:00:34.071Z,102647.57
2022-11-10T08:03:07.133Z,102651.13
2022-11-10T08:05:35.433Z,102652.74
2022-11-10T08:08:03.966Z,102645.31
2022-11-10T08:10:32.801Z,102650.16
2022-11-10T08:13:02.295Z,102659.48
2022-11-10T08:15:31.548Z,102653.27
2022-11-10T08:18:01.375Z,102669.19
2022-11-10T08:20:29.679Z,102663.04
2022-11-10T08:22:59.866Z,102654.34
2022-11-10T08:25:34.448Z,102655.88
2022-11-10T08:28:21.756Z,102661.14
2022-11-10T08:30:50.404Z,102677.79
2022-11-10T08:33:21.076Z,102672.75
2022-11-10T08:35:52.107Z,102674.74
2022-11-10T08:38:24.457Z,102681.19
2022-11-10T08:40:52.114Z,102685.21
2022-11-10T08:43:20.374Z,102680.63
2022-11-10T08:45:48.344Z,102695.25
2022-11-10T08:48:19.651Z,102689.36
2022-11-10T08:50:48.589Z,102698.72
2022-11-10T08:53:19.160Z,102705.48
2022-11-10T08:55:47.552Z,102699.20
2022-11-10T08:58:20.706Z,102708.85
2022-11-10T09:00:48.782Z,102707.25
2022-11-10T09:03:20.083Z,102707.97
2022-11-10T09:05:53.658Z,102716.34
2022-11-10T09:08:25.603Z,102712.61
2022-11-10T09:10:53.628Z,102708.66
2022-11-10T09:13:29.490Z,102719.71
2022-11-10T09:16:02.243Z,102728.31
2022-11-10T09:18:30.800Z,102729.32
2022-11-10T09:20:58.520Z,102734.13
2022-11-10T09:23:27.456Z,102735.14
2022-11-10T09:25:56.928Z,102732.73
2022-11-10T09:28:25.528Z,102741.88
2022-11-10T09:30:53.590Z,102746.00
2022-11-10T09:33:21.888Z,102748.16
2022-11-10T09:35:50.049Z,102751.00
2022-11-10T09:38:18.207Z,102761.20
2022-11-10T09:41:08.022Z,102754.24
2022-11-10T09:43:58.256Z,102761.96
2022-11-10T09:46:30.643Z,102759.24
2022-11-10T09:49:10.841Z,102752.87
2022-11-10T09:51:48.192Z,102763.33
2022-11-10T09:54:28.259Z,102764.38
2022-11-10T09:57:01.458Z,102763.04
2022-11-10T09:59:34.354Z,102758.33
2022-11-10T10:02:16.718Z,102765.03
2022-11-10T10:05:02.236Z,102764.02
2022-11-10T10:07:41.793Z,102777.46
2022-11-10T10:10:42.598Z,102773.24
2022-11-10T10:13:38.556Z,102773.80
2022-11-10T10:16:44.059Z,102765.91
2022-11-10T10:19:14.656Z,102769.31
2022-11-10T10:22:00.162Z,102772.36
2022-11-10T10:24:29.191Z,102771.80
2022-11-10T10:27:00.370Z,102768.37
2022-11-10T10:29:37.447Z,102768.95
2022-11-10T10:32:06.828Z,102771.60
2022-11-10T10:34:35.677Z,102775.49
2022-11-10T10:37:03.523Z,102778.14
2022-11-10T10:39:45.258Z,102780.01
2022-11-10T10:42:38.810Z,102784.81
2022-11-10T10:45:18.572Z,102794.92
2022-11-10T10:47:47.105Z,102793.41
2022-11-10T10:50:35.625Z,102795.51
2022-11-10T10:53:24.286Z,102796.98
2022-11-10T10:56:16.577Z,102796.20
2022-11-10T10:59:07.095Z,102802.08
2022-11-10T11:01:39.027Z,102793.22
2022-11-10T11:04:28.035Z,102799.76
2022-11-10T11:07:07.593Z,102804.47
2022-11-10T11:09:44.353Z,102803.81
2022-11-10T11:12:15.376Z,102796.45
2022-11-10T11:14:45.963Z,102795.18
2022-11-10T11:17:21.027Z,102802.08
2022-11-10T11:19:58.639Z,102808.85
2022-11-10T11:22:48.057Z,102805.87
2022-11-10T11:25:33.274Z,102799.07
2022-11-10T11:28:23.392Z,102796.55
2022-11-10T11:30:56.970Z,102793.55
2022-11-10T11:33:30.146Z,102781.84
2022-11-10T11:36:17.692Z,102784.81
2022-11-10T11:39:22.875Z,102784.65
2022-11-10T11:42:26.852Z,102785.89
2022-11-10T11:45:05.934Z,102787.92
2022-11-10T11:48:01.275Z,102790.27
2022-11-10T11:50:36.943Z,102786.02
2022-11-10T11:53:18.510Z,102789.82
2022-11-10T11:56:15.251Z,102784.45
2022-11-10T11:58:52.658Z,102785.77
2022-11-10T12:02:03.785Z,102784.48
2022-11-10T12:04:50.357Z,102789.98
2022-11-10T12:07:44.196Z,102794.23
2022-11-10T12:10:43.126Z,102792.86
2022-11-10T12:13:22.691Z,102781.38
2022-11-10T12:15:58.356Z,102780.47
2022-11-10T12:18:38.800Z,102787.70
2022-11-10T12:21:15.632Z,102782.30
2022-11-10T12:24:10.435Z,102779.65
2022-11-10T12:26:58.700Z,102769.67
2022-11-10T12:29:47.709Z,102783.93
2022-11-10T12:32:24.585Z,102777.69
2022-11-10T12:34:57.244Z,102784.16
2022-11-10T12:37:33.845Z,102778.73
2022-11-10T12:40:19.065Z,102774.58
2022-11-10T12:42:54.480Z,102769.67
2022-11-10T12:45:27.316Z,102771.38
2022-11-10T12:47:56.602Z,102773.44
2022-11-10T12:50:32.179Z,102769.87
2022-11-10T12:53:05.387Z,102767.68
2022-11-10T12:55:41.655Z,102767.12
2022-11-10T12:58:14.021Z,102770.00
2022-11-10T13:00:56.641Z,102767.91
2022-11-10T13:03:58.349Z,102764.70
2022-11-10T13:06:28.171Z,102760.55
2022-11-10T13:08:56.242Z,102765.85
2022-11-10T13:11:35.507Z,102766.54
2022-11-10T13:14:24.298Z,102761.92
2022-11-10T13:16:55.181Z,102769.41
2022-11-10T13:19:22.774Z,102770.46
2022-11-10T13:21:53.337Z,102760.71
2022-11-10T13:24:28.518Z,102760.45
2022-11-10T13:27:01.852Z,102756.79
2022-11-10T13:29:35.848Z,102755.84
2022-11-10T13:32:29.597Z,102760.81
2022-11-10T13:35:29.133Z,102750.80
2022-11-10T13:37:58.528Z,102751.04
2022-11-10T13:40:29.168Z,102753.55
2022-11-10T13:42:59.587Z,102751.63
2022-11-10T13:45:33.674Z,102748.84
2022-11-10T13:48:35.157Z,102747.70
2022-11-10T13:51:16.071Z,102748.16
2022-11-10T13:54:02.529Z,102741.72
2022-11-10T13:57:01.012Z,102754.47
2022-11-10T13:59:32.446Z,102752.87
2022-11-10T14:02:34.182Z,102757.02
2022-11-10T14:05:03.260Z,102753.00
2022-11-10T14:07:47.162Z,102753.33
2022-11-10T14:10:26.767Z,102755.52
2022-11-10T14:13:03.861Z,102751.72
2022-11-10T14:15:41.078Z,102748.84
2022-11-10T14:18:38.333Z,102749.56
2022-11-10T14:21:06.864Z,102743.81
2022-11-10T14:23:48.828Z,102752.45
2022-11-10T14:26:31.572Z,102754.93
2022-11-10T14:29:30.252Z,102750.45
2022-11-10T14:32:01.784Z,102751.27
2022-11-10T14:34:29.708Z,102752.05
2022-11-10T14:37:00.367Z,102754.60
2022-11-10T14:39:33.949Z,102747.24
2022-11-10T14:42:06.711Z,102766.57
2022-11-10T14:44:35.686Z,102769.05
2022-11-10T14:47:16.857Z,102776.54
2022-11-10T14:49:44.982Z,102762.61
2022-11-10T14:52:14.824Z,102771.15
2022-11-10T14:54:47.673Z,102772.84
2022-11-10T14:57:19.210Z,102761.80
2022-11-10T14:59:47.277Z,102764.34
2022-11-10T15:02:20.570Z,102770.88
2022-11-10T15:04:52.115Z,102769.74
2022-11-10T15:07:20.449Z,102768.14
2022-11-10T15:10:19.024Z,102762.05
2022-11-10T15:12:59.592Z,102770.27
2022-11-10T15:15:27.364Z,102776.80
2022-11-10T15:17:55.329Z,102775.66
2022-11-10T15:20:34.733Z,102780.27
2022-11-10T15:23:04.175Z,102777.03
2022-11-10T15:25:42.242Z,102774.29
2022-11-10T15:28:30.416Z,102774.29
2022-11-10T15:31:13.074Z,102786.55
2022-11-10T15:33:47.982Z,102778.96
2022-11-10T15:36:24.742Z,102783.44
2022-11-10T15:39:29.114Z,102783.12
2022-11-10T15:41:59.385Z,102779.88
2022-11-10T15:44:30.843Z,102782.04
2022-11-10T15:47:00.303Z,102778.38
2022-11-10T15:49:32.174Z,102782.85
2022-11-10T15:52:04.303Z,102772.26
2022-11-10T15:54:35.024Z,102777.20
2022-11-10T15:57:02.746Z,102774.68
2022-11-10T15:59:30.746Z,102778.93
2022-11-10T16:01:58.707Z,102780.63
2022-11-10T16:04:28.074Z,102797.50
2022-11-10T16:06:56.108Z,102800.94
2022-11-10T16:09:23.771Z,102812.94
2022-11-10T16:11:51.412Z,102814.87
2022-11-10T16:14:19.134Z,102819.09
2022-11-10T16:16:46.862Z,102819.54
2022-11-10T16:19:14.528Z,102828.34
2022-11-10T16:21:42.153Z,102830.82
2022-11-10T16:24:09.856Z,102834.62
2022-11-10T16:26:37.702Z,102843.64
2022-11-10T16:29:12.507Z,102837.20
2022-11-10T16:31:40.228Z,102840.24
2022-11-10T16:34:13.377Z,102839.30
2022-11-10T16:36:42.768Z,102844.03
2022-11-10T16:39:16.703Z,102857.80
2022-11-10T16:41:44.647Z,102856.00
2022-11-10T16:44:14.809Z,102867.19
2022-11-10T16:46:49.331Z,102881.21
2022-11-10T16:49:36.378Z,102884.26
2022-11-10T16:52:12.368Z,102873.86
2022-11-10T16:54:39.996Z,102882.13
2022-11-10T16:57:15.393Z,102874.87
2022-11-10T16:59:43.757Z,102879.48
2022-11-10T17:02:29.110Z,102884.84
2022-11-10T17:04:56.997Z,102888.21
2022-11-10T17:07:28.056Z,102890.77
2022-11-10T17:09:59.117Z,102892.56
2022-11-10T17:12:26.805Z,102889.39
2022-11-10T17:14:54.420Z,102905.09
2022-11-10T17:17:22.159Z,102913.72
2022-11-10T17:19:51.160Z,102910.58
2022-11-10T17:22:22.435Z,102908.59
2022-11-10T17:24:54.877Z,102915.19
2022-11-10T17:27:22.522Z,102911.63
2022-11-10T17:29:50.155Z,102913.33
2022-11-10T17:32:21.293Z,102908.45
2022-11-10T17:34:51.865Z,102923.66
2022-11-10T17:37:20.128Z,102920.42
2022-11-10T17:39:47.806Z,102928.63
2022-11-10T17:42:15.441Z,102930.30
2022-11-10T17:44:43.102Z,102925.39
2022-11-10T17:47:10.715Z,102932.42
2022-11-10T17:49:38.364Z,102930.49
2022-11-10T17:52:06.126Z,102944.91
2022-11-10T17:54:33.745Z,102953.22
2022-11-10T17:57:01.344Z,102949.59
2022-11-10T17:59:29.009Z,102943.97
2022-11-10T18:01:56.673Z,102950.41
2022-11-10T18:04:24.405Z,102960.68
2022-11-10T18:06:52.167Z,102966.82
2022-11-10T18:09:19.844Z,102970.13
2022-11-10T18:11:47.549Z,102970.98
2022-11-10T18:14:15.253Z,102968.55
2022-11-10T18:16:42.995Z,102975.88
2022-11-10T18:19:12.247Z,102972.61
2022-11-10T18:21:39.874Z,102966.10
2022-11-10T18:24:07.672Z,102969.37
2022-11-10T18:26:35.279Z,102963.26
2022-11-10T18:29:02.884Z,102960.05
2022-11-10T18:31:30.635Z,102965.41
2022-11-10T18:33:58.307Z,102960.12
2022-11-10T18:36:25.990Z,102957.38
2022-11-10T18:38:53.595Z,102964.77
2022-11-10T18:41:40.187Z,102967.25
2022-11-10T18:44:07.836Z,102966.40
2022-11-10T18:46:35.613Z,102967.25
2022-11-10T18:49:03.307Z,102965.26
2022-11-10T18:51:33.189Z,102960.38
2022-11-10T18:54:00.929Z,102971.76
2022-11-10T18:56:28.833Z,102971.76
2022-11-10T18:58:57.064Z,102962.37
2022-11-10T19:01:25.560Z,102966.46
2022-11-10T19:03:53.303Z,102968.98
2022-11-10T19:06:21.221Z,102977.55
2022-11-10T19:08:49.783Z,102988.66
2022-11-10T19:11:18.874Z,102989.88
2022-11-10T19:13:46.928Z,102985.01
2022-11-10T19:16:17.656Z,102989.88
2022-11-10T19:18:45.536Z,102993.97
2022-11-10T19:21:16.136Z,102991.52
2022-11-10T19:23:43.884Z,102987.03
2022-11-10T19:26:19.405Z,103001.78
2022-11-10T19:28:49.760Z,102996.05
2022-11-10T19:31:19.617Z,103000.54
2022-11-10T19:33:47.633Z,102997.30
2022-11-10T19:36:18.294Z,103001.35
2022-11-10T19:38:46.452Z,103004.66
2022-11-10T19:41:18.145Z,103001.84
2022-11-10T19:43:47.612Z,103003.45
2022-11-10T19:46:23.809Z,103006.33
2022-11-10T19:48:52.022Z,103005.93
2022-11-10T19:51:20.471Z,103001.52
2022-11-10T19:53:49.919Z,102998.67
2022-11-10T19:56:21.823Z,102997.50
2022-11-10T19:58:50.020Z,103004.04
2022-11-10T20:01:19.268Z,103002.50
2022-11-10T20:03:47.260Z,103007.83
2022-11-10T20:06:22.261Z,103003.35
2022-11-10T20:08:50.624Z,103008.22
2022-11-10T20:11:26.879Z,103000.57
2022-11-10T20:13:57.238Z,103015.65
2022-11-10T20:16:24.963Z,103012.80
2022-11-10T20:18:52.699Z,103005.51
2022-11-10T20:21:24.788Z,103008.42
2022-11-10T20:23:56.890Z,103010.09
2022-11-10T20:26:25.895Z,103003.55
2022-11-10T20:28:53.631Z,103014.14
2022-11-10T20:31:27.053Z,103005.54
2022-11-10T20:33:56.374Z,103007.14
2022-11-10T20:36:27.447Z,103004.79
2022-11-10T20:38:58.676Z,103009.70
2022-11-10T20:41:29.460Z,103010.58
2022-11-10T20:43:57.124Z,103004.52
2022-11-10T20:46:52.685Z,103010.61
2022-11-10T20:49:12.542Z,103002.04
2022-11-10T20:51:41.531Z,103012.67
2022-11-10T20:54:09.778Z,103005.80
2022-11-10T20:56:37.509Z,103010.74
2022-11-10T20:59:05.128Z,103015.68
2022-11-10T21:01:34.590Z,103016.10
2022-11-10T21:04:03.588Z,103010.84
2022-11-10T21:06:31.246Z,103013.75
2022-11-10T21:08:58.974Z,103014.56
2022-11-10T21:11:45.408Z,103008.84
2022-11-10T21:14:13.032Z,103001.88
2022-11-10T21:16:40.811Z,103002.34
2022-11-10T21:19:08.466Z,103001.88
2022-11-10T21:21:36.196Z,103003.09
2022-11-10T21:24:07.794Z,103012.87
2022-11-10T21:26:36.760Z,103016.89
2022-11-10T21:29:05.994Z,103021.43
2022-11-10T21:31:33.656Z,103029.12
2022-11-10T21:34:01.542Z,103036.80
2022-11-10T21:36:30.458Z,103030.27
2022-11-10T21:38:59.256Z,103037.13
2022-11-10T21:41:28.107Z,103027.35
2022-11-10T21:43:55.762Z,103034.68
2022-11-10T21:46:23.505Z,103034.22
2022-11-10T21:48:52.026Z,103033.83
2022-11-10T21:51:22.087Z,103036.25
2022-11-10T21:53:49.786Z,103043.11
2022-11-10T21:56:17.480Z,103042.23
2022-11-10T21:58:45.070Z,103049.98
2022-11-10T22:01:16.325Z,103038.14
2022-11-10T22:03:43.990Z,103041.38
2022-11-10T22:06:14.582Z,103047.10
2022-11-10T22:08:45.116Z,103056.88
2022-11-10T22:11:33.779Z,103060.54
2022-11-10T22:14:20.521Z,103056.84
2022-11-10T22:17:08.539Z,103050.63
2022-11-10T22:19:37.798Z,103045.30
2022-11-10T22:22:05.419Z,103042.00
2022-11-10T22:24:34.782Z,103045.27
2022-11-10T22:27:04.850Z,103051.38
2022-11-10T22:29:34.571Z,103050.14
2022-11-10T22:32:02.979Z,103050.96
2022-11-10T22:34:30.974Z,103043.63
2022-11-10T22:37:00.427Z,103035.49
2022-11-10T22:39:50.750Z,103043.63
2022-11-10T22:42:36.906Z,103051.38
2022-11-10T22:45:04.686Z,103048.12
2022-11-10T22:47:52.316Z,103039.91
2022-11-10T22:50:19.935Z,103039.09
2022-11-10T22:52:47.591Z,103036.57
2022-11-10T22:55:15.305Z,103024.77
2022-11-10T22:57:42.918Z,103027.62
2022-11-10T23:00:11.077Z,103024.38
2022-11-10T23:02:38.689Z,103024.02
2022-11-10T23:05:06.668Z,103024.05
2022-11-10T23:07:34.281Z,103022.84
2022-11-10T23:10:01.939Z,103027.38
2022-11-10T23:12:29.550Z,103029.45
2022-11-10T23:14:57.204Z,103029.87
2022-11-10T23:17:24.822Z,103031.05
2022-11-10T23:19:52.421Z,103022.05
2022-11-10T23:22:20.042Z,103026.50
2022-11-10T23:24:49.106Z,103040.34
2022-11-10T23:27:19.398Z,103035.85
2022-11-10T23:29:47.023Z,103033.83
2022-11-10T23:32:14.649Z,103036.67
2022-11-10T23:34:42.295Z,103038.30
2022-11-10T23:37:09.924Z,103035.43
2022-11-10T23:39:37.539Z,103028.89
2022-11-10T23:42:05.151Z,103024.80
2022-11-10T23:44:32.844Z,103029.74
2022-11-10T23:47:00.521Z,103033.01
2022-11-10T23:49:28.113Z,103038.30
2022-11-10T23:51:55.701Z,103044.42
2022-11-10T23:54:23.306Z,103049.36
2022-11-10T23:56:50.957Z,103056.36
2022-11-10T23:59:18.542Z,103051.48
